Time;durP1;ratioP1;P1;durP2;ratioP2;P2;SDS_P1;SDS_P2;PMS_P1;PMS_P2;Temp;Humidity;BMP_temperature;BMP_pressure;BME280_temperature;BME280_humidity;BME280_pressure;Samples;Min_cycle;Max_cycle;Signal;HPM_P1;HPM_P2
2022/12/29 00:02:14;;;;;;;;;;;14.80;58.40;;;;;;5094496;28;19946;-71
2022/12/29 00:04:39;;;;;;;;;;;14.80;58.50;;;;;;5094280;28;19920;-73
2022/12/29 00:07:05;;;;;;;;;;;14.80;58.50;;;;;;5094206;28;19920;-67
2022/12/29 00:09:31;;;;;;;;;;;14.80;58.50;;;;;;5094467;28;19928;-67
2022/12/29 00:11:57;;;;;;;;;;;14.80;58.50;;;;;;5095306;28;19924;-67
2022/12/29 00:17:08;;;;;;;;;;;14.80;58.50;;;;;;5093758;28;20345;-73
2022/12/29 00:36:13;;;;;;;;;;;14.80;58.80;;;;;;5094694;28;20411;-67
2022/12/29 00:44:12;;;;;;;;;;;14.80;58.80;;;;;;5093602;28;19926;-67
2022/12/29 00:46:38;;;;;;;;;;;14.80;58.80;;;;;;5094808;28;20355;-73
2022/12/29 00:49:36;;;;;;;;;;;14.80;58.80;;;;;;5093673;28;19920;-67
2022/12/29 00:51:51;;;;;;;;;;;14.80;58.80;;;;;;5093394;28;20006;-67
2022/12/29 00:54:16;;;;;;;;;;;14.80;58.80;;;;;;5093610;28;20011;-73
2022/12/29 00:56:42;;;;;;;;;;;14.80;58.80;;;;;;5092946;28;19924;-73
2022/12/29 00:59:09;;;;;;;;;;;14.80;58.80;;;;;;5093413;28;19959;-71
2022/12/29 01:01:35;;;;;;;;;;;14.80;58.90;;;;;;5092761;28;19973;-67
2022/12/29 01:04:00;;;;;;;;;;;14.80;58.90;;;;;;5094144;28;19920;-67
2022/12/29 01:06:26;;;;;;;;;;;14.80;58.90;;;;;;5094278;28;20386;-67
2022/12/29 01:11:38;;;;;;;;;;;14.80;58.90;;;;;;5094066;28;20062;-74
2022/12/29 01:14:04;;;;;;;;;;;14.80;58.90;;;;;;5093172;28;20006;-73
2022/12/29 01:16:29;;;;;;;;;;;14.80;58.90;;;;;;5092811;28;19931;-67
2022/12/29 01:18:55;;;;;;;;;;;14.80;58.90;;;;;;5092941;28;20003;-67
2022/12/29 01:21:20;;;;;;;;;;;14.80;58.90;;;;;;5093024;28;20124;-67
2022/12/29 01:23:46;;;;;;;;;;;14.80;58.90;;;;;;5092690;28;19926;-67
2022/12/29 01:26:12;;;;;;;;;;;14.80;58.90;;;;;;5094032;28;19924;-67
2022/12/29 01:28:40;;;;;;;;;;;14.80;58.90;;;;;;5092868;28;19954;-73
2022/12/29 01:31:05;;;;;;;;;;;14.80;58.90;;;;;;5092624;28;20036;-66
2022/12/29 01:33:31;;;;;;;;;;;14.80;58.90;;;;;;5092738;28;20018;-74
2022/12/29 01:36:00;;;;;;;;;;;14.80;58.90;;;;;;5093660;28;19924;-73
2022/12/29 01:38:26;;;;;;;;;;;14.80;59.00;;;;;;5092728;28;19955;-74
2022/12/29 01:40:51;;;;;;;;;;;14.80;59.00;;;;;;5091760;28;19990;-66
2022/12/29 01:43:17;;;;;;;;;;;14.80;59.00;;;;;;5093790;28;20471;-66
2022/12/29 01:45:45;;;;;;;;;;;14.80;59.00;;;;;;5092586;28;20402;-73
2022/12/29 01:48:11;;;;;;;;;;;14.80;59.00;;;;;;5093613;28;19946;-73
2022/12/29 01:50:39;;;;;;;;;;;14.80;59.10;;;;;;5092085;28;19973;-73
2022/12/29 01:53:10;;;;;;;;;;;14.80;59.10;;;;;;5093521;28;19920;-67
2022/12/29 01:55:39;;;;;;;;;;;14.80;59.10;;;;;;5092009;28;20391;-73
2022/12/29 01:58:05;;;;;;;;;;;14.80;59.00;;;;;;5092128;28;20022;-73
2022/12/29 02:00:31;;;;;;;;;;;14.80;59.00;;;;;;5093297;28;19998;-67
2022/12/29 02:02:57;;;;;;;;;;;14.80;59.10;;;;;;5092268;28;19927;-67
2022/12/29 02:08:04;;;;;;;;;;;14.80;59.10;;;;;;5126123;27;1908312;-72
2022/12/29 02:10:31;;;;;;;;;;;14.80;59.10;;;;;;5174412;27;19918;-65
2022/12/29 02:12:57;;;;;;;;;;;14.80;59.10;;;;;;5174504;27;20001;-65
2022/12/29 02:15:31;;;;;;;;;;;14.80;59.20;;;;;;5170104;27;20002;-65
2022/12/29 02:18:04;;;;;;;;;;;14.80;59.10;;;;;;5153543;27;19926;-72
2022/12/29 02:20:39;;;;;;;;;;;14.80;59.20;;;;;;5153309;27;20589;-65
2022/12/29 02:23:14;;;;;;;;;;;14.80;59.10;;;;;;5153014;27;20282;-64
2022/12/29 02:25:59;;;;;;;;;;;14.80;59.20;;;;;;5153007;27;19919;-65
2022/12/29 02:28:45;;;;;;;;;;;14.80;59.10;;;;;;5171647;27;19919;-65
2022/12/29 02:31:30;;;;;;;;;;;14.80;59.10;;;;;;5171656;27;19926;-65
2022/12/29 02:34:02;;;;;;;;;;;14.80;59.10;;;;;;5171604;27;20385;-65
2022/12/29 02:50:13;;;;;;;;;;;14.80;59.30;;;;;;5089921;28;20333;-68
2022/12/29 02:52:43;;;;;;;;;;;14.80;59.30;;;;;;5088643;28;20007;-65
2022/12/29 02:55:11;;;;;;;;;;;14.80;59.40;;;;;;5088914;28;19921;-64
2022/12/29 02:57:37;;;;;;;;;;;14.80;59.40;;;;;;5088499;28;19921;-70
2022/12/29 03:02:56;;;;;;;;;;;14.80;59.40;;;;;;5110263;27;19918;-64
2022/12/29 03:19:30;;;;;;;;;;;14.80;59.50;;;;;;5109538;27;19912;-65
2022/12/29 03:22:30;;;;;;;;;;;14.70;59.40;;;;;;5109976;28;19988;-64
2022/12/29 03:24:44;;;;;;;;;;;14.80;59.50;;;;;;5109025;28;20375;-71
2022/12/29 03:27:11;;;;;;;;;;;14.80;59.50;;;;;;5108744;28;19920;-70
2022/12/29 03:29:41;;;;;;;;;;;14.80;59.50;;;;;;5109152;28;19920;-71
2022/12/29 03:32:08;;;;;;;;;;;14.80;59.50;;;;;;5110112;28;19928;-64
2022/12/29 03:34:34;;;;;;;;;;;14.80;59.60;;;;;;5108701;28;19920;-64
2022/12/29 03:37:02;;;;;;;;;;;14.80;59.60;;;;;;5108935;28;19923;-64
2022/12/29 03:39:28;;;;;;;;;;;14.70;59.60;;;;;;5108469;28;19924;-64
2022/12/29 03:41:58;;;;;;;;;;;14.70;59.50;;;;;;5109840;28;19966;-64
2022/12/29 03:44:31;;;;;;;;;;;14.70;59.60;;;;;;5108478;28;19927;-65
2022/12/29 03:46:57;;;;;;;;;;;14.70;59.60;;;;;;5108870;28;20279;-64
2022/12/29 03:49:22;;;;;;;;;;;14.70;59.60;;;;;;5108369;28;19920;-64
2022/12/29 03:51:48;;;;;;;;;;;14.80;59.60;;;;;;5108387;28;19920;-71
2022/12/29 03:54:13;;;;;;;;;;;14.80;59.60;;;;;;5108637;28;19920;-70
2022/12/29 03:56:39;;;;;;;;;;;14.80;59.70;;;;;;5108249;28;20318;-65
2022/12/29 03:59:04;;;;;;;;;;;14.70;59.60;;;;;;5108561;28;19920;-70
2022/12/29 04:01:30;;;;;;;;;;;14.70;59.70;;;;;;5109448;28;20383;-65
2022/12/29 04:03:55;;;;;;;;;;;14.80;59.70;;;;;;5108460;28;20012;-71
2022/12/29 04:06:21;;;;;;;;;;;14.70;59.70;;;;;;5108188;28;19923;-64
2022/12/29 04:08:46;;;;;;;;;;;14.70;59.70;;;;;;5108050;28;19920;-64
2022/12/29 04:11:12;;;;;;;;;;;14.80;59.70;;;;;;5108031;28;19920;-71
2022/12/29 04:13:40;;;;;;;;;;;14.70;59.70;;;;;;5109391;28;19919;-64
2022/12/29 04:16:06;;;;;;;;;;;14.70;59.70;;;;;;5109409;28;20010;-64
2022/12/29 04:18:32;;;;;;;;;;;14.70;59.70;;;;;;5107432;28;20007;-64
2022/12/29 04:21:00;;;;;;;;;;;14.70;59.70;;;;;;5107844;28;20023;-65
2022/12/29 04:23:26;;;;;;;;;;;14.70;59.70;;;;;;5108003;28;19973;-64
2022/12/29 04:25:52;;;;;;;;;;;14.80;59.70;;;;;;5107975;28;19920;-71
2022/12/29 04:28:18;;;;;;;;;;;14.80;59.70;;;;;;5108224;28;20335;-65
2022/12/29 04:30:43;;;;;;;;;;;14.80;59.70;;;;;;5094741;28;19970;-72
2022/12/29 04:33:09;;;;;;;;;;;14.70;59.60;;;;;;5094445;28;19916;-72
2022/12/29 04:35:34;;;;;;;;;;;14.70;59.60;;;;;;5095064;28;20412;-64
2022/12/29 04:38:00;;;;;;;;;;;14.70;59.60;;;;;;5093177;28;19920;-64
2022/12/29 04:40:26;;;;;;;;;;;14.70;59.60;;;;;;5094709;28;19916;-65
2022/12/29 04:42:51;;;;;;;;;;;14.70;59.60;;;;;;5094547;28;20473;-71
2022/12/29 04:45:17;;;;;;;;;;;14.70;59.60;;;;;;5095116;28;20386;-71
2022/12/29 04:47:42;;;;;;;;;;;14.70;59.50;;;;;;5093595;28;19920;-71
2022/12/29 04:50:08;;;;;;;;;;;14.70;59.50;;;;;;5093582;28;19925;-71
2022/12/29 04:52:34;;;;;;;;;;;14.80;59.60;;;;;;5094008;28;20424;-71
2022/12/29 04:54:59;;;;;;;;;;;14.70;59.50;;;;;;5093559;28;20256;-72
2022/12/29 04:57:25;;;;;;;;;;;14.70;59.40;;;;;;5093475;28;19982;-64
2022/12/29 04:59:51;;;;;;;;;;;14.70;59.40;;;;;;5093421;28;19931;-71
2022/12/29 05:02:16;;;;;;;;;;;14.70;60.10;;;;;;5093143;28;19920;-65
2022/12/29 05:04:42;;;;;;;;;;;14.80;59.40;;;;;;5094537;28;19927;-65
2022/12/29 05:07:08;;;;;;;;;;;14.70;59.40;;;;;;5094509;28;20011;-65
2022/12/29 05:09:33;;;;;;;;;;;14.70;59.40;;;;;;5092885;28;19998;-64
2022/12/29 05:11:59;;;;;;;;;;;14.70;59.40;;;;;;5094463;28;19924;-65
2022/12/29 05:14:24;;;;;;;;;;;14.70;59.40;;;;;;5094241;28;20022;-65
2022/12/29 05:16:50;;;;;;;;;;;14.70;59.40;;;;;;5092629;28;19967;-65
2022/12/29 05:19:16;;;;;;;;;;;14.70;59.40;;;;;;5094294;28;19920;-65
2022/12/29 05:21:42;;;;;;;;;;;14.70;59.40;;;;;;5092938;28;19928;-65
2022/12/29 05:24:07;;;;;;;;;;;14.70;59.40;;;;;;5093413;28;19917;-65
2022/12/29 05:26:33;;;;;;;;;;;14.70;59.40;;;;;;5093078;28;19963;-65
2022/12/29 05:28:59;;;;;;;;;;;14.70;59.40;;;;;;5094038;28;19920;-71
2022/12/29 05:31:25;;;;;;;;;;;14.70;59.40;;;;;;5093012;28;19926;-65
2022/12/29 05:33:50;;;;;;;;;;;14.70;59.40;;;;;;5094153;28;19924;-65
2022/12/29 05:36:16;;;;;;;;;;;14.70;59.40;;;;;;5093974;28;19927;-65
2022/12/29 05:38:42;;;;;;;;;;;14.70;59.40;;;;;;5092536;28;20299;-65
2022/12/29 05:41:07;;;;;;;;;;;14.70;59.40;;;;;;5091560;28;20007;-71
2022/12/29 05:43:32;;;;;;;;;;;14.70;59.40;;;;;;5092506;28;19982;-64
2022/12/29 05:45:58;;;;;;;;;;;14.70;59.40;;;;;;5092798;28;19989;-69
2022/12/29 05:48:24;;;;;;;;;;;14.70;59.40;;;;;;5093973;28;20323;-65
2022/12/29 05:50:50;;;;;;;;;;;14.70;59.40;;;;;;5092465;28;20009;-71
2022/12/29 05:53:16;;;;;;;;;;;14.70;59.40;;;;;;5093954;28;19920;-65
2022/12/29 05:55:42;;;;;;;;;;;14.70;59.40;;;;;;5092396;28;20393;-71
2022/12/29 05:58:07;;;;;;;;;;;14.70;59.40;;;;;;5092238;28;19924;-65
2022/12/29 06:00:33;;;;;;;;;;;14.70;59.40;;;;;;5092044;28;19920;-65
2022/12/29 06:02:58;;;;;;;;;;;14.70;59.40;;;;;;5093460;28;19920;-65
2022/12/29 06:05:24;;;;;;;;;;;14.70;59.40;;;;;;5093712;28;19943;-64
2022/12/29 06:07:49;;;;;;;;;;;14.70;59.40;;;;;;5093382;28;20376;-65
2022/12/29 06:10:15;;;;;;;;;;;14.70;59.40;;;;;;5093375;28;19943;-65
2022/12/29 06:12:40;;;;;;;;;;;14.70;59.40;;;;;;5093260;28;20302;-65
2022/12/29 06:15:06;;;;;;;;;;;14.70;59.40;;;;;;5091255;28;19974;-64
2022/12/29 06:17:32;;;;;;;;;;;14.70;59.40;;;;;;5091714;28;19931;-71
2022/12/29 06:19:58;;;;;;;;;;;14.70;59.40;;;;;;5091891;28;19927;-65
2022/12/29 06:22:23;;;;;;;;;;;14.70;59.30;;;;;;5091968;28;20399;-64
2022/12/29 06:24:49;;;;;;;;;;;14.70;59.30;;;;;;5093385;28;19975;-65
2022/12/29 06:27:15;;;;;;;;;;;14.70;59.30;;;;;;5091904;28;19924;-65
2022/12/29 06:29:40;;;;;;;;;;;14.70;59.20;;;;;;5093033;28;19923;-65
2022/12/29 06:32:06;;;;;;;;;;;14.70;59.20;;;;;;5092070;28;19920;-64
2022/12/29 06:34:31;;;;;;;;;;;14.70;59.20;;;;;;5093028;28;20019;-65
2022/12/29 06:36:57;;;;;;;;;;;14.70;59.20;;;;;;5093109;28;20304;-64
2022/12/29 06:39:23;;;;;;;;;;;14.70;59.20;;;;;;5091909;28;20010;-65
2022/12/29 06:41:51;;;;;;;;;;;14.70;59.20;;;;;;5093027;28;20291;-64
2022/12/29 06:44:16;;;;;;;;;;;14.70;59.20;;;;;;5091916;28;20326;-70
2022/12/29 06:46:42;;;;;;;;;;;14.70;59.20;;;;;;5091878;28;19919;-65
2022/12/29 06:49:07;;;;;;;;;;;14.70;59.10;;;;;;5091526;28;19920;-65
2022/12/29 06:51:33;;;;;;;;;;;14.70;59.20;;;;;;5091226;28;19933;-65
2022/12/29 06:53:58;;;;;;;;;;;14.70;59.10;;;;;;5091760;28;19920;-65
2022/12/29 06:56:24;;;;;;;;;;;14.70;59.10;;;;;;5092642;28;19920;-64
2022/12/29 06:58:49;;;;;;;;;;;14.70;59.10;;;;;;5091358;28;19931;-64
2022/12/29 07:01:15;;;;;;;;;;;14.70;59.10;;;;;;5091565;28;19920;-71
2022/12/29 07:03:41;;;;;;;;;;;14.70;59.20;;;;;;5091646;28;20280;-65
2022/12/29 07:06:06;;;;;;;;;;;14.70;59.10;;;;;;5092551;28;19920;-72
2022/12/29 07:08:32;;;;;;;;;;;14.70;59.10;;;;;;5091294;28;19928;-64
2022/12/29 07:10:57;;;;;;;;;;;14.70;59.10;;;;;;5091238;28;19920;-65
2022/12/29 07:13:23;;;;;;;;;;;14.70;59.20;;;;;;5091454;28;19943;-72
2022/12/29 07:15:48;;;;;;;;;;;14.70;59.10;;;;;;5092420;28;19927;-65
2022/12/29 07:18:14;;;;;;;;;;;14.70;59.10;;;;;;5090199;28;19924;-65
2022/12/29 07:20:39;;;;;;;;;;;14.70;59.10;;;;;;5090855;28;19927;-65
2022/12/29 07:23:05;;;;;;;;;;;14.70;59.10;;;;;;5091452;28;19927;-65
2022/12/29 07:25:31;;;;;;;;;;;14.60;59.00;;;;;;5092316;28;19935;-72
2022/12/29 07:27:56;;;;;;;;;;;14.70;59.10;;;;;;5091408;28;19920;-71
2022/12/29 07:30:22;;;;;;;;;;;14.70;59.10;;;;;;5092265;28;19967;-64
2022/12/29 07:32:47;;;;;;;;;;;14.70;59.20;;;;;;5092376;28;20295;-64
2022/12/29 07:35:13;;;;;;;;;;;14.60;59.00;;;;;;5091293;28;19920;-65
2022/12/29 07:37:38;;;;;;;;;;;14.70;59.10;;;;;;5090864;28;20014;-64
2022/12/29 07:40:04;;;;;;;;;;;14.70;59.10;;;;;;5092309;28;19927;-71
2022/12/29 07:42:30;;;;;;;;;;;14.70;59.10;;;;;;5092315;28;20011;-65
2022/12/29 07:44:56;;;;;;;;;;;14.70;59.10;;;;;;5090943;28;20397;-65
2022/12/29 07:47:21;;;;;;;;;;;14.60;59.00;;;;;;5091184;28;19920;-72
2022/12/29 07:49:47;;;;;;;;;;;14.60;59.00;;;;;;5090873;28;19924;-72
2022/12/29 07:52:12;;;;;;;;;;;14.60;59.00;;;;;;5090812;28;19924;-72
2022/12/29 07:54:38;;;;;;;;;;;14.60;59.00;;;;;;5090868;28;19950;-65
2022/12/29 07:57:04;;;;;;;;;;;14.60;59.00;;;;;;5092014;28;19920;-71
2022/12/29 07:59:30;;;;;;;;;;;14.60;59.00;;;;;;5092382;28;20424;-65
2022/12/29 08:01:55;;;;;;;;;;;14.60;58.90;;;;;;5091951;28;19920;-65
2022/12/29 08:04:21;;;;;;;;;;;14.60;58.90;;;;;;5092258;28;19924;-65
2022/12/29 08:06:46;;;;;;;;;;;14.60;58.90;;;;;;5094890;28;19926;-65
2022/12/29 08:09:12;;;;;;;;;;;14.60;58.90;;;;;;5094869;28;19920;-65
2022/12/29 08:11:38;;;;;;;;;;;14.60;58.90;;;;;;5094468;28;19924;-64
2022/12/29 08:14:03;;;;;;;;;;;14.60;58.90;;;;;;5094747;28;20287;-64
2022/12/29 08:16:29;;;;;;;;;;;14.60;58.90;;;;;;5094387;28;20019;-65
2022/12/29 08:18:55;;;;;;;;;;;14.60;59.60;;;;;;5094901;28;19928;-65
2022/12/29 08:21:20;;;;;;;;;;;14.70;58.90;;;;;;5094270;28;19938;-72
2022/12/29 08:23:47;;;;;;;;;;;14.60;58.90;;;;;;5095507;28;19942;-65
2022/12/29 08:26:12;;;;;;;;;;;14.60;58.90;;;;;;5093852;28;19923;-71
2022/12/29 08:28:38;;;;;;;;;;;14.60;58.90;;;;;;5095393;28;20428;-65
2022/12/29 08:31:03;;;;;;;;;;;14.60;58.90;;;;;;5094371;28;20027;-65
2022/12/29 08:33:29;;;;;;;;;;;14.60;58.80;;;;;;5095362;28;19930;-65
2022/12/29 08:35:59;;;;;;;;;;;14.60;58.80;;;;;;5093982;28;19924;-65
2022/12/29 08:38:25;;;;;;;;;;;14.60;58.90;;;;;;5093848;28;19963;-65
2022/12/29 08:40:51;;;;;;;;;;;14.60;58.80;;;;;;5093973;28;19971;-64
2022/12/29 08:43:16;;;;;;;;;;;14.60;58.80;;;;;;5095108;28;19920;-65
2022/12/29 08:45:42;;;;;;;;;;;14.60;58.80;;;;;;5094167;28;19920;-65
2022/12/29 08:48:07;;;;;;;;;;;14.60;58.80;;;;;;5093806;28;20383;-71
2022/12/29 08:50:33;;;;;;;;;;;14.60;58.80;;;;;;5095002;28;19920;-65
2022/12/29 08:52:58;;;;;;;;;;;14.60;58.80;;;;;;5095234;28;20462;-64
2022/12/29 08:55:24;;;;;;;;;;;14.60;58.70;;;;;;5094947;28;20368;-65
2022/12/29 08:57:49;;;;;;;;;;;14.60;58.70;;;;;;5093584;28;20387;-65
2022/12/29 09:00:15;;;;;;;;;;;14.60;58.70;;;;;;5094811;28;19935;-71
2022/12/29 09:02:41;;;;;;;;;;;14.60;58.70;;;;;;5093759;28;20068;-72
2022/12/29 09:05:06;;;;;;;;;;;14.60;58.70;;;;;;5093457;28;19927;-71
2022/12/29 09:07:32;;;;;;;;;;;14.60;58.70;;;;;;5094721;28;19928;-71
2022/12/29 09:09:58;;;;;;;;;;;14.60;58.70;;;;;;5094807;28;19943;-65
2022/12/29 09:12:23;;;;;;;;;;;14.60;58.70;;;;;;5093360;28;20058;-66
2022/12/29 09:14:49;;;;;;;;;;;14.60;58.60;;;;;;5094481;28;20026;-72
2022/12/29 09:17:45;;;;;;;;;;;14.60;58.60;;;;;;5093239;28;19924;-65
2022/12/29 09:20:00;;;;;;;;;;;14.60;58.60;;;;;;5092931;28;19920;-72
2022/12/29 09:22:25;;;;;;;;;;;14.60;58.60;;;;;;5093129;28;19927;-72
2022/12/29 09:24:51;;;;;;;;;;;14.60;58.60;;;;;;5093093;28;19939;-72
2022/12/29 09:27:16;;;;;;;;;;;14.60;58.60;;;;;;5094417;28;19923;-71
2022/12/29 09:29:42;;;;;;;;;;;14.60;58.60;;;;;;5094194;28;19920;-65
2022/12/29 09:32:07;;;;;;;;;;;14.60;58.60;;;;;;5094380;28;20003;-72
2022/12/29 09:34:33;;;;;;;;;;;14.60;58.60;;;;;;5094106;28;19927;-72
2022/12/29 09:36:58;;;;;;;;;;;14.60;58.60;;;;;;5093036;28;19924;-71
2022/12/29 09:39:24;;;;;;;;;;;14.60;58.60;;;;;;5092746;28;19920;-72
2022/12/29 09:47:20;;;;;;;;;;;14.60;58.60;;;;;;5089998;28;19919;-71
2022/12/29 09:49:52;;;;;;;;;;;14.60;58.60;;;;;;5088505;28;19946;-65
2022/12/29 09:55:02;;;;;;;;;;;14.60;58.70;;;;;;5089951;28;19913;-64
2022/12/29 09:57:32;;;;;;;;;;;14.60;58.70;;;;;;5088922;28;19924;-71
2022/12/29 10:00:03;;;;;;;;;;;14.60;58.70;;;;;;5088808;28;20321;-71
2022/12/29 10:05:16;;;;;;;;;;;14.60;58.70;;;;;;5089906;28;19938;-65
2022/12/29 10:07:46;;;;;;;;;;;14.50;58.60;;;;;;5088671;28;19931;-65
2022/12/29 10:10:18;;;;;;;;;;;14.60;58.70;;;;;;5088848;28;19921;-64
2022/12/29 10:15:33;;;;;;;;;;;14.50;58.60;;;;;;5089669;28;19935;-65
2022/12/29 10:18:18;;;;;;;;;;;14.60;58.60;;;;;;5088495;28;19921;-72
2022/12/29 10:23:46;;;;;;;;;;;14.50;58.60;;;;;;5126822;27;1870654;-69
2022/12/29 10:26:15;;;;;;;;;;;14.50;58.60;;;;;;5173617;27;19925;-65
2022/12/29 10:28:43;;;;;;;;;;;14.50;58.60;;;;;;5174341;27;19979;-71
2022/12/29 10:31:16;;;;;;;;;;;14.50;58.70;;;;;;5174261;27;19918;-65
2022/12/29 10:33:42;;;;;;;;;;;14.50;58.70;;;;;;5173955;27;19979;-65
2022/12/29 10:36:12;;;;;;;;;;;14.50;58.70;;;;;;5174056;27;19966;-65
2022/12/29 10:38:43;;;;;;;;;;;14.50;58.70;;;;;;5174261;27;19930;-65
2022/12/29 10:41:21;;;;;;;;;;;14.50;58.70;;;;;;5173952;27;19925;-65
2022/12/29 10:43:48;;;;;;;;;;;14.50;58.70;;;;;;5174329;27;19926;-64
2022/12/29 10:46:17;;;;;;;;;;;14.60;58.90;;;;;;5192849;27;20349;-71
2022/12/29 10:48:45;;;;;;;;;;;14.60;58.80;;;;;;5173972;27;19927;-64
2022/12/29 10:51:16;;;;;;;;;;;14.60;58.80;;;;;;5192760;27;19918;-65
2022/12/29 10:53:47;;;;;;;;;;;14.60;58.80;;;;;;5192378;27;19926;-65
2022/12/29 10:56:31;;;;;;;;;;;14.50;58.80;;;;;;5174106;27;19919;-65
2022/12/29 10:58:58;;;;;;;;;;;14.50;58.80;;;;;;5173489;27;19918;-65
2022/12/29 11:01:27;;;;;;;;;;;14.50;58.90;;;;;;5173318;27;19930;-64
2022/12/29 11:03:59;;;;;;;;;;;14.50;58.90;;;;;;5173993;27;19918;-64
2022/12/29 11:06:26;;;;;;;;;;;14.50;58.90;;;;;;5173487;27;20013;-65
2022/12/29 11:09:02;;;;;;;;;;;14.60;58.90;;;;;;5173561;27;20106;-65
2022/12/29 11:11:32;;;;;;;;;;;14.50;58.90;;;;;;5173588;27;19922;-64
2022/12/29 11:14:02;;;;;;;;;;;14.60;58.90;;;;;;5192441;27;19918;-64
2022/12/29 11:16:30;;;;;;;;;;;14.50;58.90;;;;;;5192276;27;20013;-71
2022/12/29 11:18:56;;;;;;;;;;;14.50;59.00;;;;;;5173206;27;20005;-72
2022/12/29 11:21:27;;;;;;;;;;;14.60;59.00;;;;;;5172986;27;20021;-64
2022/12/29 11:23:57;;;;;;;;;;;14.40;58.90;;;;;;5192209;27;19922;-65
2022/12/29 11:26:23;;;;;;;;;;;14.50;59.00;;;;;;5173425;27;20377;-65
2022/12/29 11:29:09;;;;;;;;;;;14.50;59.00;;;;;;5191995;27;19919;-70
2022/12/29 11:31:43;;;;;;;;;;;14.50;59.00;;;;;;5172823;27;19967;-71
2022/12/29 11:34:08;;;;;;;;;;;14.50;59.00;;;;;;5181986;27;20320;-71
2022/12/29 11:36:35;;;;;;;;;;;14.50;59.10;;;;;;5178273;27;19919;-64
2022/12/29 11:39:01;;;;;;;;;;;14.50;59.10;;;;;;5159230;27;19919;-64
2022/12/29 11:41:28;;;;;;;;;;;14.50;59.10;;;;;;5177572;27;20330;-64
2022/12/29 11:43:55;;;;;;;;;;;14.50;59.20;;;;;;5158319;27;19927;-70
2022/12/29 11:46:24;;;;;;;;;;;14.50;59.20;;;;;;5177068;27;19926;-64
2022/12/29 11:48:50;;;;;;;;;;;14.50;59.20;;;;;;5158470;27;19919;-70
2022/12/29 11:51:33;;;;;;;;;;;14.50;59.20;;;;;;5158793;27;19919;-68
2022/12/29 11:54:00;;;;;;;;;;;14.50;59.20;;;;;;5158531;27;19919;-64
2022/12/29 11:56:42;;;;;;;;;;;14.60;59.30;;;;;;5159036;27;19926;-65
2022/12/29 11:59:31;;;;;;;;;;;14.50;59.30;;;;;;5158419;27;19919;-73
2022/12/29 12:01:58;;;;;;;;;;;14.50;59.30;;;;;;5158534;27;19918;-66
2022/12/29 12:04:27;;;;;;;;;;;14.50;59.30;;;;;;5158511;27;20413;-66
2022/12/29 12:09:37;;;;;;;;;;;14.50;59.30;;;;;;5110129;27;19940;-71
2022/12/29 12:12:03;;;;;;;;;;;14.50;59.20;;;;;;5108715;28;19920;-64
2022/12/29 12:17:19;;;;;;;;;;;14.60;59.40;;;;;;5110271;27;20368;-72
2022/12/29 12:20:05;;;;;;;;;;;14.50;59.20;;;;;;5110030;28;19965;-71
2022/12/29 12:22:33;;;;;;;;;;;14.70;59.40;;;;;;5092223;28;19920;-63
2022/12/29 12:25:20;;;;;;;;;;;14.50;59.30;;;;;;5091352;28;20390;-64
2022/12/29 12:27:53;;;;;;;;;;;14.50;59.30;;;;;;5091842;28;19926;-64
2022/12/29 12:30:19;;;;;;;;;;;14.50;59.30;;;;;;5091989;28;20350;-64
2022/12/29 12:32:54;;;;;;;;;;;14.50;59.30;;;;;;5091843;28;20325;-71
2022/12/29 12:41:03;;;;;;;;;;;14.50;59.30;;;;;;5110152;27;20381;-70
2022/12/29 12:43:36;;;;;;;;;;;14.60;59.30;;;;;;5108762;28;19919;-70
2022/12/29 12:46:13;;;;;;;;;;;14.50;59.20;;;;;;5109066;28;19927;-64
2022/12/29 12:51:54;;;;;;;;;;;14.50;59.20;;;;;;5089852;28;19912;-64
2022/12/29 12:57:05;;;;;;;;;;;14.50;59.30;;;;;;5122007;27;1996731;-70
2022/12/29 12:59:43;;;;;;;;;;;14.50;59.40;;;;;;5174137;27;19919;-64
2022/12/29 13:02:25;;;;;;;;;;;14.50;59.40;;;;;;5174176;27;20267;-64
2022/12/29 13:05:10;;;;;;;;;;;14.50;59.40;;;;;;5156058;27;19923;-70
2022/12/29 13:07:44;;;;;;;;;;;14.50;59.40;;;;;;5152837;27;19919;-64
2022/12/29 13:12:57;;;;;;;;;;;14.50;59.40;;;;;;5127170;27;1869122;-65
2022/12/29 13:18:12;;;;;;;;;;;14.50;59.50;;;;;;5089589;28;20583;-64
2022/12/29 13:20:42;;;;;;;;;;;14.50;59.60;;;;;;5088492;28;19966;-64
2022/12/29 13:23:27;;;;;;;;;;;14.50;59.70;;;;;;5087394;28;19927;-64
2022/12/29 13:26:02;;;;;;;;;;;14.50;59.60;;;;;;5087885;28;19927;-64
2022/12/29 13:28:31;;;;;;;;;;;14.50;59.60;;;;;;5088706;28;19920;-64
2022/12/29 13:31:17;;;;;;;;;;;14.50;59.70;;;;;;5087956;28;19928;-64
2022/12/29 13:34:02;;;;;;;;;;;14.50;59.60;;;;;;5088537;28;19990;-71
2022/12/29 13:36:44;;;;;;;;;;;14.50;59.60;;;;;;5087615;28;19928;-64
2022/12/29 13:39:12;;;;;;;;;;;14.50;59.50;;;;;;5088424;28;19920;-64
2022/12/29 13:41:41;;;;;;;;;;;14.50;59.50;;;;;;5088704;28;19920;-64
2022/12/29 13:44:07;;;;;;;;;;;14.50;59.50;;;;;;5089383;28;19924;-70
2022/12/29 13:46:43;;;;;;;;;;;14.50;59.50;;;;;;5088423;28;19955;-64
2022/12/29 13:49:13;;;;;;;;;;;14.50;59.50;;;;;;5088301;28;19928;-64
2022/12/29 13:51:42;;;;;;;;;;;14.50;59.50;;;;;;5089226;28;19920;-64
2022/12/29 13:54:17;;;;;;;;;;;14.50;59.40;;;;;;5088197;28;19920;-64
2022/12/29 13:59:38;;;;;;;;;;;14.50;59.40;;;;;;5127398;27;1866573;-65
2022/12/29 14:02:09;;;;;;;;;;;14.40;59.40;;;;;;5174488;27;19919;-71
2022/12/29 14:04:35;;;;;;;;;;;14.50;59.40;;;;;;5174789;27;20001;-64
2022/12/29 14:07:05;;;;;;;;;;;14.50;59.40;;;;;;5174344;27;19918;-64
2022/12/29 14:09:38;;;;;;;;;;;14.50;59.40;;;;;;5174564;27;19925;-64
2022/12/29 14:12:18;;;;;;;;;;;14.50;59.50;;;;;;5168068;27;20041;-64
2022/12/29 14:14:43;;;;;;;;;;;14.50;59.50;;;;;;5153344;27;19964;-71
2022/12/29 14:17:10;;;;;;;;;;;14.50;59.50;;;;;;5153122;27;20394;-64
2022/12/29 14:19:40;;;;;;;;;;;14.40;59.40;;;;;;5153501;27;19956;-64
2022/12/29 14:22:06;;;;;;;;;;;14.40;59.40;;;;;;5171852;27;20290;-64
2022/12/29 14:29:53;;;;;;;;;;;14.50;59.40;;;;;;5089857;28;20301;-71
2022/12/29 14:35:26;;;;;;;;;;;14.40;59.40;;;;;;5110047;27;19934;-64
2022/12/29 14:38:04;;;;;;;;;;;14.50;59.40;;;;;;5108821;28;19920;-65
2022/12/29 14:40:30;;;;;;;;;;;14.40;59.40;;;;;;5109268;28;20287;-64
2022/12/29 14:42:56;;;;;;;;;;;14.40;59.40;;;;;;5109169;28;19920;-70
2022/12/29 14:48:27;;;;;;;;;;;14.40;59.30;;;;;;5110304;27;19918;-71
2022/12/29 14:50:53;;;;;;;;;;;14.40;59.30;;;;;;5110035;28;19989;-64
2022/12/29 14:53:38;;;;;;;;;;;14.40;59.60;;;;;;5108817;28;20379;-64
2022/12/29 14:56:04;;;;;;;;;;;14.40;59.30;;;;;;5108498;28;19920;-64
2022/12/29 14:58:30;;;;;;;;;;;14.40;59.30;;;;;;5108806;28;19931;-64
2022/12/29 15:00:56;;;;;;;;;;;14.40;59.30;;;;;;5109064;28;19920;-65
2022/12/29 15:03:31;;;;;;;;;;;14.40;59.30;;;;;;5108696;28;20277;-64
2022/12/29 15:06:03;;;;;;;;;;;14.70;59.40;;;;;;5108689;28;19959;-64
2022/12/29 15:08:31;;;;;;;;;;;15.10;58.60;;;;;;5108565;28;20287;-71
2022/12/29 15:11:04;;;;;;;;;;;15.50;57.90;;;;;;5108858;28;19920;-64
2022/12/29 15:13:34;;;;;;;;;;;16.10;56.80;;;;;;5108863;28;19920;-71
2022/12/29 15:16:00;;;;;;;;;;;16.90;54.80;;;;;;5109583;28;19927;-64
2022/12/29 15:18:28;;;;;;;;;;;17.70;53.10;;;;;;5109639;28;20295;-71
2022/12/29 15:20:56;;;;;;;;;;;18.60;51.30;;;;;;5109496;28;19919;-71
2022/12/29 15:23:22;;;;;;;;;;;19.40;49.20;;;;;;5109592;28;19919;-64
2022/12/29 15:25:50;;;;;;;;;;;20.20;47.50;;;;;;5109337;28;20391;-64
2022/12/29 15:28:16;;;;;;;;;;;20.90;46.10;;;;;;5108566;28;19967;-65
2022/12/29 15:31:02;;;;;;;;;;;21.60;45.00;;;;;;5108500;28;19926;-71
2022/12/29 15:33:28;;;;;;;;;;;22.20;43.60;;;;;;5109449;28;19928;-65
2022/12/29 15:35:54;;;;;;;;;;;22.70;42.50;;;;;;5109255;28;19973;-71
2022/12/29 15:38:22;;;;;;;;;;;23.10;41.90;;;;;;5109349;28;19920;-71
2022/12/29 15:40:51;;;;;;;;;;;23.40;41.40;;;;;;5109426;28;19927;-71
2022/12/29 15:46:00;;;;;;;;;;;23.70;40.70;;;;;;5090046;28;19919;-64
2022/12/29 15:48:25;;;;;;;;;;;23.70;40.60;;;;;;5088780;28;19986;-64
2022/12/29 15:50:51;;;;;;;;;;;23.60;40.60;;;;;;5088559;28;20407;-64
2022/12/29 15:53:24;;;;;;;;;;;23.50;40.70;;;;;;5105726;28;19927;-64
2022/12/29 15:55:50;;;;;;;;;;;23.40;40.60;;;;;;5089758;28;19947;-70
2022/12/29 15:58:18;;;;;;;;;;;23.20;41.20;;;;;;5088371;28;20400;-71
2022/12/29 16:00:47;;;;;;;;;;;23.10;41.30;;;;;;5088677;28;19963;-65
2022/12/29 16:03:14;;;;;;;;;;;22.90;41.50;;;;;;5088211;28;19921;-65
2022/12/29 16:05:40;;;;;;;;;;;22.70;41.70;;;;;;5089558;28;20364;-65
2022/12/29 16:08:25;;;;;;;;;;;22.50;41.80;;;;;;5088195;28;19927;-64
2022/12/29 16:10:53;;;;;;;;;;;22.30;42.40;;;;;;5089346;28;19920;-64
2022/12/29 16:13:24;;;;;;;;;;;22.10;42.40;;;;;;5089346;28;20443;-64
2022/12/29 16:15:52;;;;;;;;;;;21.90;42.80;;;;;;5088014;28;19924;-65
2022/12/29 16:18:26;;;;;;;;;;;21.60;43.10;;;;;;5089398;28;19978;-72
2022/12/29 16:20:53;;;;;;;;;;;21.50;43.60;;;;;;5089414;28;20288;-64